PWSweather.com
Personal Weather Stations
Station Observations

PoschiavoCH

Lat: 46.31962499999999, Lon: 10.066551000000004

Elevation: 3517

Station Type: WH 1080

http://www.meteoposchiavo.com

High Low Average
Temperature 77.0°F25.0°C 48.0°F8.9°C 62.3°F16.8°C
Dew Point 57.8°F14.3°C 37.2°F2.9°C 48.2°F9.0°C
Winds 5.8 mph 9.3 kmh Calm Calm 1.0 mph SE1.6 kmh SE
Wind Gusts 9.2 mph14.8 kmh -- 1.0 mph1.6 kmh
Humidity 96% 31% 63%
Pressure 26.75 in905.9 mb 26.57 in899.8 mb -
Precipitation 0.04 in1.0 mm - -
Hour Temp Dew Point Humidity Winds Wind Gusts Pressure Precip Precip Rate Daily Precip Total
12:00 AM 52.0°F11.1°C 44.7°F7.1°C 76% Calm Calm -- 26.74 in905.5 mb - 0.00 in0.0 mm 0.00 in0.0 mm
12:10 AM 51.0°F10.6°C 43.4°F6.3°C 75% Calm Calm -- 26.74 in905.5 mb - 0.00 in0.0 mm 0.00 in0.0 mm
12:15 AM 51.0°F10.6°C 43.0°F6.1°C 74% Calm Calm -- 26.74 in905.5 mb - 0.00 in0.0 mm 0.00 in0.0 mm
12:20 AM 51.0°F10.6°C 44.0°F6.7°C 77% Calm Calm -- 26.74 in905.5 mb - 0.00 in0.0 mm 0.00 in0.0 mm
12:25 AM 52.1°F11.2°C 44.7°F7.1°C 76% Calm Calm -- 26.73 in905.2 mb - 0.00 in0.0 mm 0.00 in0.0 mm
12:30 AM 53.0°F11.7°C 45.3°F7.4°C 75% Calm Calm -- 26.72 in904.8 mb - 0.00 in0.0 mm 0.00 in0.0 mm
12:35 AM 51.0°F10.6°C 43.4°F6.3°C 75% Calm Calm -- 26.74 in905.5 mb - 0.00 in0.0 mm 0.00 in0.0 mm
12:40 AM 50.0°F10.0°C 42.7°F5.9°C 76% Calm Calm -- 26.75 in905.9 mb - 0.00 in0.0 mm 0.00 in0.0 mm
12:45 AM 50.0°F10.0°C 43.4°F6.3°C 78% Calm Calm -- 26.74 in905.5 mb - 0.00 in0.0 mm 0.00 in0.0 mm
12:50 AM 52.0°F11.1°C 44.3°F6.8°C 75% Calm Calm -- 26.74 in905.5 mb - 0.00 in0.0 mm 0.00 in0.0 mm
12:55 AM 50.0°F10.0°C 42.0°F5.6°C 74% Calm Calm 1.2 mph1.9 kmh 26.74 in905.5 mb - 0.00 in0.0 mm 0.00 in0.0 mm
01:00 AM 50.0°F10.0°C 42.0°F5.6°C 74% Calm Calm 1.2 mph1.9 kmh 26.74 in905.5 mb - 0.00 in0.0 mm 0.00 in0.0 mm
01:10 AM 51.0°F10.6°C 44.0°F6.7°C 77% Calm Calm -- 26.75 in905.9 mb - 0.00 in0.0 mm 0.00 in0.0 mm
01:15 AM 50.0°F10.0°C 44.1°F6.7°C 80% Calm Calm -- 26.75 in905.9 mb - 0.00 in0.0 mm 0.00 in0.0 mm
01:20 AM 50.0°F10.0°C 42.4°F5.8°C 75% Calm Calm -- 26.75 in905.9 mb - 0.00 in0.0 mm 0.00 in0.0 mm
01:25 AM 50.0°F10.0°C 43.7°F6.5°C 79% Calm Calm -- 26.75 in905.9 mb - 0.00 in0.0 mm 0.00 in0.0 mm
01:30 AM 50.0°F10.0°C 42.0°F5.6°C 74% Calm Calm -- 26.74 in905.5 mb - 0.00 in0.0 mm 0.00 in0.0 mm
01:35 AM 50.0°F10.0°C 42.7°F5.9°C 76% Calm Calm -- 26.74 in905.5 mb - 0.00 in0.0 mm 0.00 in0.0 mm
01:40 AM 50.0°F10.0°C 44.1°F6.7°C 80% Calm Calm -- 26.74 in905.5 mb - 0.00 in0.0 mm 0.00 in0.0 mm
01:45 AM 50.0°F10.0°C 43.1°F6.2°C 77% Calm Calm -- 26.74 in905.5 mb - 0.00 in0.0 mm 0.00 in0.0 mm
01:50 AM 50.0°F10.0°C 44.1°F6.7°C 80% Calm Calm -- 26.75 in905.9 mb - 0.00 in0.0 mm 0.00 in0.0 mm
01:55 AM 50.0°F10.0°C 41.3°F5.2°C 72% Calm Calm -- 26.74 in905.5 mb - 0.00 in0.0 mm 0.00 in0.0 mm
02:00 AM 50.0°F10.0°C 42.7°F5.9°C 76% Calm Calm -- 26.74 in905.5 mb - 0.00 in0.0 mm 0.00 in0.0 mm
02:10 AM 49.8°F9.9°C 42.9°F6.1°C 77% Calm Calm -- 26.74 in905.5 mb - 0.00 in0.0 mm 0.00 in0.0 mm
02:15 AM 49.0°F9.4°C 41.1°F5.1°C 74% Calm Calm -- 26.74 in905.5 mb - 0.00 in0.0 mm 0.00 in0.0 mm
02:20 AM 50.0°F10.0°C 42.7°F5.9°C 76% Calm Calm -- 26.73 in905.2 mb - 0.00 in0.0 mm 0.00 in0.0 mm
02:25 AM 50.0°F10.0°C 42.0°F5.6°C 74% Calm Calm -- 26.73 in905.2 mb - 0.00 in0.0 mm 0.00 in0.0 mm
02:30 AM 50.0°F10.0°C 42.7°F5.9°C 76% Calm Calm -- 26.73 in905.2 mb - 0.00 in0.0 mm 0.00 in0.0 mm
02:35 AM 49.0°F9.4°C 41.8°F5.4°C 76% Calm Calm -- 26.72 in904.8 mb - 0.00 in0.0 mm 0.00 in0.0 mm
02:40 AM 49.0°F9.4°C 42.8°F6.0°C 79% Calm Calm -- 26.72 in904.8 mb - 0.00 in0.0 mm 0.00 in0.0 mm
02:45 AM 49.0°F9.4°C 42.8°F6.0°C 79% Calm Calm -- 26.72 in904.8 mb - 0.00 in0.0 mm 0.00 in0.0 mm
02:50 AM 49.0°F9.4°C 42.8°F6.0°C 79% Calm Calm -- 26.72 in904.8 mb - 0.00 in0.0 mm 0.00 in0.0 mm
02:55 AM 50.0°F10.0°C 42.7°F5.9°C 76% Calm Calm -- 26.72 in904.8 mb - 0.00 in0.0 mm 0.00 in0.0 mm
03:00 AM 49.0°F9.4°C 42.4°F5.8°C 78% Calm Calm -- 26.72 in904.8 mb - 0.00 in0.0 mm 0.00 in0.0 mm
03:10 AM 50.0°F10.0°C 41.7°F5.4°C 73% Calm Calm -- 26.71 in904.5 mb - 0.00 in0.0 mm 0.00 in0.0 mm
03:15 AM 50.0°F10.0°C 42.7°F5.9°C 76% Calm Calm -- 26.71 in904.5 mb - 0.00 in0.0 mm 0.00 in0.0 mm
03:20 AM 49.9°F9.9°C 43.0°F6.1°C 77% Calm Calm -- 26.71 in904.5 mb - 0.00 in0.0 mm 0.00 in0.0 mm
03:25 AM 49.0°F9.4°C 41.4°F5.2°C 75% Calm Calm -- 26.72 in904.8 mb - 0.00 in0.0 mm 0.00 in0.0 mm
03:30 AM 49.0°F9.4°C 42.4°F5.8°C 78% Calm Calm -- 26.72 in904.8 mb - 0.00 in0.0 mm 0.00 in0.0 mm
03:35 AM 49.0°F9.4°C 43.1°F6.2°C 80% Calm Calm -- 26.72 in904.8 mb - 0.00 in0.0 mm 0.00 in0.0 mm
03:40 AM 48.0°F8.9°C 41.8°F5.4°C 79% Calm Calm -- 26.72 in904.8 mb - 0.00 in0.0 mm 0.00 in0.0 mm
03:45 AM 48.0°F8.9°C 42.1°F5.6°C 80% Calm Calm -- 26.73 in905.2 mb - 0.00 in0.0 mm 0.00 in0.0 mm
03:50 AM 48.0°F8.9°C 42.1°F5.6°C 80% Calm Calm -- 26.72 in904.8 mb - 0.00 in0.0 mm 0.00 in0.0 mm
03:55 AM 48.0°F8.9°C 42.1°F5.6°C 80% Calm Calm -- 26.72 in904.8 mb - 0.00 in0.0 mm 0.00 in0.0 mm
04:00 AM 49.0°F9.4°C 42.1°F5.6°C 77% Calm Calm -- 26.72 in904.8 mb - 0.00 in0.0 mm 0.00 in0.0 mm
04:10 AM 48.0°F8.9°C 41.1°F5.1°C 77% Calm Calm -- 26.72 in904.8 mb - 0.00 in0.0 mm 0.00 in0.0 mm
04:15 AM 49.0°F9.4°C 40.0°F4.4°C 71% Calm Calm 1.2 mph1.9 kmh 26.72 in904.8 mb - 0.00 in0.0 mm 0.00 in0.0 mm
04:20 AM 49.9°F9.9°C 42.7°F5.9°C 76% Calm Calm 1.2 mph1.9 kmh 26.72 in904.8 mb - 0.00 in0.0 mm 0.00 in0.0 mm
04:25 AM 49.9°F9.9°C 42.7°F5.9°C 76% Calm Calm -- 26.72 in904.8 mb - 0.00 in0.0 mm 0.00 in0.0 mm
04:30 AM 49.0°F9.4°C 40.7°F4.8°C 73% Calm Calm -- 26.72 in904.8 mb - 0.00 in0.0 mm 0.00 in0.0 mm
04:35 AM 49.0°F9.4°C 42.1°F5.6°C 77% Calm Calm -- 26.72 in904.8 mb - 0.00 in0.0 mm 0.00 in0.0 mm
04:40 AM 48.0°F8.9°C 41.1°F5.1°C 77% Calm Calm -- 26.73 in905.2 mb - 0.00 in0.0 mm 0.00 in0.0 mm
04:45 AM 49.0°F9.4°C 41.8°F5.4°C 76% Calm Calm -- 26.72 in904.8 mb - 0.00 in0.0 mm 0.00 in0.0 mm
04:50 AM 48.2°F9.0°C 41.3°F5.2°C 77% Calm Calm -- 26.72 in904.8 mb - 0.00 in0.0 mm 0.00 in0.0 mm
04:55 AM 48.0°F8.9°C 41.1°F5.1°C 77% Calm Calm -- 26.72 in904.8 mb - 0.00 in0.0 mm 0.00 in0.0 mm
05:00 AM 48.0°F8.9°C 41.8°F5.4°C 79% Calm Calm -- 26.72 in904.8 mb - 0.00 in0.0 mm 0.00 in0.0 mm
05:10 AM 49.0°F9.4°C 40.4°F4.7°C 72% Calm Calm -- 26.72 in904.8 mb - 0.00 in0.0 mm 0.00 in0.0 mm
05:15 AM 49.0°F9.4°C 41.1°F5.1°C 74% Calm Calm -- 26.72 in904.8 mb - 0.00 in0.0 mm 0.00 in0.0 mm
05:20 AM 49.0°F9.4°C 41.1°F5.1°C 74% 1.2 mph W1.9 kmh W 2.3 mph3.7 kmh 26.61 in901.1 mb - 0.00 in0.0 mm 0.00 in0.0 mm
05:25 AM 72.0°F22.2°C 50.1°F10.1°C 46% 2.3 mph W3.7 kmh W 2.3 mph3.7 kmh 26.57 in899.8 mb - 0.00 in0.0 mm 0.00 in0.0 mm
05:30 AM 50.0°F10.0°C 42.0°F5.6°C 74% Calm Calm -- 26.73 in905.2 mb - 0.00 in0.0 mm 0.00 in0.0 mm
05:35 AM 50.0°F10.0°C 42.0°F5.6°C 74% Calm Calm -- 26.73 in905.2 mb - 0.00 in0.0 mm 0.00 in0.0 mm
05:40 AM 50.0°F10.0°C 42.0°F5.6°C 74% Calm Calm -- 26.72 in904.8 mb - 0.00 in0.0 mm 0.00 in0.0 mm
05:45 AM 50.0°F10.0°C 43.4°F6.3°C 78% Calm Calm -- 26.72 in904.8 mb - 0.00 in0.0 mm 0.00 in0.0 mm
05:50 AM 49.5°F9.7°C 42.9°F6.1°C 78% Calm Calm -- 26.72 in904.8 mb - 0.00 in0.0 mm 0.00 in0.0 mm
05:55 AM 49.0°F9.4°C 42.4°F5.8°C 78% Calm Calm -- 26.72 in904.8 mb - 0.00 in0.0 mm 0.00 in0.0 mm
06:00 AM 50.0°F10.0°C 43.4°F6.3°C 78% Calm Calm -- 26.73 in905.2 mb - 0.00 in0.0 mm 0.00 in0.0 mm
06:10 AM 50.0°F10.0°C 41.3°F5.2°C 72% Calm Calm -- 26.73 in905.2 mb - 0.00 in0.0 mm 0.00 in0.0 mm
06:15 AM 49.0°F9.4°C 39.3°F4.1°C 69% Calm Calm -- 26.73 in905.2 mb - 0.00 in0.0 mm 0.00 in0.0 mm
06:20 AM 49.5°F9.7°C 40.5°F4.7°C 71% Calm Calm -- 26.73 in905.2 mb - 0.00 in0.0 mm 0.00 in0.0 mm
06:25 AM 50.0°F10.0°C 41.7°F5.4°C 73% Calm Calm -- 26.73 in905.2 mb - 0.00 in0.0 mm 0.00 in0.0 mm
06:30 AM 50.0°F10.0°C 41.7°F5.4°C 73% Calm Calm -- 26.74 in905.5 mb - 0.00 in0.0 mm 0.00 in0.0 mm
06:35 AM 51.0°F10.6°C 42.6°F5.9°C 73% Calm Calm -- 26.73 in905.2 mb - 0.00 in0.0 mm 0.00 in0.0 mm
06:40 AM 50.0°F10.0°C 42.7°F5.9°C 76% Calm Calm -- 26.74 in905.5 mb - 0.00 in0.0 mm 0.00 in0.0 mm
06:45 AM 50.0°F10.0°C 43.1°F6.2°C 77% Calm Calm -- 26.73 in905.2 mb - 0.00 in0.0 mm 0.00 in0.0 mm
06:50 AM 50.0°F10.0°C 43.1°F6.2°C 77% Calm Calm -- 26.73 in905.2 mb - 0.00 in0.0 mm 0.00 in0.0 mm
06:55 AM 50.0°F10.0°C 42.7°F5.9°C 76% Calm Calm -- 26.74 in905.5 mb - 0.00 in0.0 mm 0.00 in0.0 mm
07:00 AM 51.0°F10.6°C 41.6°F5.3°C 70% Calm Calm -- 26.74 in905.5 mb - 0.00 in0.0 mm 0.00 in0.0 mm
07:10 AM 61.0°F16.1°C 47.9°F8.8°C 62% Calm Calm -- 26.64 in902.1 mb - 0.00 in0.0 mm 0.00 in0.0 mm
07:15 AM 51.0°F10.6°C 37.2°F2.9°C 59% Calm Calm -- 26.74 in905.5 mb - 0.00 in0.0 mm 0.00 in0.0 mm
07:20 AM 51.0°F10.6°C 44.0°F6.7°C 77% Calm Calm -- 26.74 in905.5 mb - 0.00 in0.0 mm 0.00 in0.0 mm
07:25 AM 51.0°F10.6°C 43.4°F6.3°C 75% Calm Calm -- 26.74 in905.5 mb - 0.00 in0.0 mm 0.00 in0.0 mm
07:30 AM 51.0°F10.6°C 42.3°F5.7°C 72% Calm Calm -- 26.73 in905.2 mb - 0.00 in0.0 mm 0.00 in0.0 mm
07:35 AM 53.0°F11.7°C 43.8°F6.6°C 71% Calm Calm -- 26.73 in905.2 mb - 0.00 in0.0 mm 0.00 in0.0 mm
07:40 AM 55.0°F12.8°C 43.8°F6.6°C 66% Calm Calm -- 26.73 in905.2 mb - 0.00 in0.0 mm 0.00 in0.0 mm
07:45 AM 56.8°F13.8°C 44.4°F6.9°C 63% Calm Calm -- 26.73 in905.2 mb - 0.00 in0.0 mm 0.00 in0.0 mm
07:50 AM 57.2°F14.0°C 44.7°F7.1°C 63% Calm Calm -- 26.73 in905.2 mb - 0.00 in0.0 mm 0.00 in0.0 mm
07:55 AM 60.0°F15.6°C 45.6°F7.6°C 59% Calm Calm -- 26.73 in905.2 mb - 0.00 in0.0 mm 0.00 in0.0 mm
08:00 AM 62.0°F16.7°C 46.1°F7.8°C 56% Calm Calm -- 26.73 in905.2 mb - 0.00 in0.0 mm 0.00 in0.0 mm
08:10 AM 67.0°F19.4°C 46.1°F7.8°C 47% Calm Calm -- 26.73 in905.2 mb - 0.00 in0.0 mm 0.00 in0.0 mm
08:15 AM 68.5°F20.3°C 46.3°F7.9°C 45% Calm Calm -- 26.73 in905.2 mb - 0.00 in0.0 mm 0.00 in0.0 mm
08:20 AM 69.0°F20.6°C 46.2°F7.9°C 44% Calm Calm -- 26.73 in905.2 mb - 0.00 in0.0 mm 0.00 in0.0 mm
08:25 AM 70.0°F21.1°C 47.7°F8.7°C 45% Calm Calm -- 26.72 in904.8 mb - 0.00 in0.0 mm 0.00 in0.0 mm
08:30 AM 70.0°F21.1°C 44.6°F7.0°C 40% Calm Calm -- 26.72 in904.8 mb - 0.00 in0.0 mm 0.00 in0.0 mm
08:35 AM 71.0°F21.7°C 49.7°F9.8°C 47% Calm Calm -- 26.72 in904.8 mb - 0.00 in0.0 mm 0.00 in0.0 mm
08:40 AM 72.0°F22.2°C 47.6°F8.7°C 42% Calm Calm -- 26.71 in904.5 mb - 0.00 in0.0 mm 0.00 in0.0 mm
08:45 AM 72.0°F22.2°C 47.6°F8.7°C 42% Calm Calm -- 26.71 in904.5 mb - 0.00 in0.0 mm 0.00 in0.0 mm
08:50 AM 72.0°F22.2°C 48.3°F9.1°C 43% Calm Calm -- 26.71 in904.5 mb - 0.00 in0.0 mm 0.00 in0.0 mm
08:55 AM 71.0°F21.7°C 44.1°F6.7°C 38% Calm Calm -- 26.70 in904.2 mb - 0.00 in0.0 mm 0.00 in0.0 mm
09:00 AM 71.0°F21.7°C 48.0°F8.9°C 44% Calm Calm -- 26.71 in904.5 mb - 0.00 in0.0 mm 0.00 in0.0 mm
09:10 AM 71.0°F21.7°C 48.6°F9.2°C 45% Calm Calm -- 26.70 in904.2 mb - 0.00 in0.0 mm 0.00 in0.0 mm
09:15 AM 70.8°F21.6°C 48.4°F9.1°C 45% Calm Calm -- 26.70 in904.2 mb - 0.00 in0.0 mm 0.00 in0.0 mm
09:20 AM 70.0°F21.1°C 46.5°F8.1°C 43% Calm Calm -- 26.70 in904.2 mb - 0.00 in0.0 mm 0.00 in0.0 mm
09:25 AM 71.0°F21.7°C 39.6°F4.2°C 32% Calm Calm -- 26.69 in903.8 mb - 0.00 in0.0 mm 0.00 in0.0 mm
09:30 AM 71.0°F21.7°C 44.1°F6.7°C 38% Calm Calm -- 26.69 in903.8 mb - 0.00 in0.0 mm 0.00 in0.0 mm
09:35 AM 70.0°F21.1°C 48.3°F9.1°C 46% Calm Calm -- 26.69 in903.8 mb - 0.00 in0.0 mm 0.00 in0.0 mm
09:40 AM 70.8°F21.6°C 46.5°F8.1°C 42% Calm Calm -- 26.68 in903.5 mb - 0.00 in0.0 mm 0.00 in0.0 mm
09:45 AM 71.0°F21.7°C 46.1°F7.8°C 41% Calm Calm -- 26.68 in903.5 mb - 0.00 in0.0 mm 0.00 in0.0 mm
09:50 AM 72.0°F22.2°C 47.0°F8.3°C 41% Calm Calm -- 26.68 in903.5 mb - 0.00 in0.0 mm 0.00 in0.0 mm
09:55 AM 73.0°F22.8°C 47.2°F8.4°C 40% Calm Calm -- 26.67 in903.2 mb - 0.00 in0.0 mm 0.00 in0.0 mm
10:00 AM 74.0°F23.3°C 44.6°F7.0°C 35% Calm Calm -- 26.68 in903.5 mb - 0.00 in0.0 mm 0.00 in0.0 mm
10:10 AM 73.0°F22.8°C 43.7°F6.5°C 35% Calm Calm 1.2 mph1.9 kmh 26.67 in903.2 mb - 0.00 in0.0 mm 0.00 in0.0 mm
10:15 AM 73.0°F22.8°C 45.2°F7.3°C 37% Calm Calm 1.2 mph1.9 kmh 26.67 in903.2 mb - 0.00 in0.0 mm 0.00 in0.0 mm
10:20 AM 60.0°F15.6°C 45.6°F7.6°C 59% Calm Calm -- 26.73 in905.2 mb - 0.00 in0.0 mm 0.00 in0.0 mm
10:25 AM 75.0°F23.9°C 47.7°F8.7°C 38% Calm Calm -- 26.67 in903.2 mb - 0.00 in0.0 mm 0.00 in0.0 mm
10:30 AM 75.0°F23.9°C 47.0°F8.3°C 37% Calm Calm -- 26.67 in903.2 mb - 0.00 in0.0 mm 0.00 in0.0 mm
10:35 AM 75.0°F23.9°C 46.2°F7.9°C 36% 1.2 mph SW1.9 kmh SW 2.3 mph3.7 kmh 26.66 in902.8 mb - 0.00 in0.0 mm 0.00 in0.0 mm
10:40 AM 75.0°F23.9°C 46.2°F7.9°C 36% 1.2 mph S1.9 kmh S 2.3 mph3.7 kmh 26.66 in902.8 mb - 0.00 in0.0 mm 0.00 in0.0 mm
10:45 AM 75.0°F23.9°C 46.2°F7.9°C 36% Calm Calm -- 26.66 in902.8 mb - 0.00 in0.0 mm 0.00 in0.0 mm
10:50 AM 75.0°F23.9°C 46.2°F7.9°C 36% Calm Calm 1.2 mph1.9 kmh 26.66 in902.8 mb - 0.00 in0.0 mm 0.00 in0.0 mm
10:55 AM 76.0°F24.4°C 47.1°F8.4°C 36% Calm Calm 1.2 mph1.9 kmh 26.66 in902.8 mb - 0.00 in0.0 mm 0.00 in0.0 mm
11:00 AM 76.0°F24.4°C 44.0°F6.7°C 32% 1.2 mph SE1.9 kmh SE 1.2 mph1.9 kmh 26.66 in902.8 mb - 0.00 in0.0 mm 0.00 in0.0 mm
11:10 AM 76.0°F24.4°C 45.6°F7.6°C 34% Calm Calm -- 26.66 in902.8 mb - 0.00 in0.0 mm 0.00 in0.0 mm
11:15 AM 76.0°F24.4°C 43.2°F6.2°C 31% 1.2 mph NNE1.9 kmh NNE 1.2 mph1.9 kmh 26.65 in902.5 mb - 0.00 in0.0 mm 0.00 in0.0 mm
11:20 AM 77.0°F25.0°C 46.5°F8.1°C 34% Calm Calm -- 26.65 in902.5 mb - 0.00 in0.0 mm 0.00 in0.0 mm
11:25 AM 77.0°F25.0°C 44.9°F7.2°C 32% Calm Calm -- 26.65 in902.5 mb - 0.00 in0.0 mm 0.00 in0.0 mm
11:30 AM 77.0°F25.0°C 50.1°F10.1°C 39% 1.2 mph SW1.9 kmh SW 1.2 mph1.9 kmh 26.65 in902.5 mb - 0.00 in0.0 mm 0.00 in0.0 mm
11:35 AM 77.0°F25.0°C 50.8°F10.4°C 40% 1.2 mph WSW1.9 kmh WSW 2.3 mph3.7 kmh 26.65 in902.5 mb - 0.00 in0.0 mm 0.00 in0.0 mm
11:40 AM 76.0°F24.4°C 49.9°F9.9°C 40% 1.2 mph WSW1.9 kmh WSW 2.3 mph3.7 kmh 26.65 in902.5 mb - 0.00 in0.0 mm 0.00 in0.0 mm
11:45 AM 75.0°F23.9°C 47.7°F8.7°C 38% 2.3 mph S3.7 kmh S 3.5 mph5.6 kmh 26.65 in902.5 mb - 0.00 in0.0 mm 0.00 in0.0 mm
11:50 AM 74.0°F23.3°C 49.4°F9.7°C 42% 2.3 mph WSW3.7 kmh WSW 3.5 mph5.6 kmh 26.64 in902.1 mb - 0.00 in0.0 mm 0.00 in0.0 mm
11:55 AM 73.0°F22.8°C 51.6°F10.9°C 47% 4.6 mph SW7.4 kmh SW 6.9 mph11.1 kmh 26.65 in902.5 mb - 0.00 in0.0 mm 0.00 in0.0 mm
12:00 PM 73.0°F22.8°C 49.8°F9.9°C 44% 3.5 mph WSW5.6 kmh WSW 5.8 mph9.3 kmh 26.65 in902.5 mb - 0.00 in0.0 mm 0.00 in0.0 mm
12:10 PM 73.0°F22.8°C 49.8°F9.9°C 44% 1.2 mph NE1.9 kmh NE 1.2 mph1.9 kmh 26.64 in902.1 mb - 0.00 in0.0 mm 0.00 in0.0 mm
12:15 PM 72.0°F22.2°C 50.7°F10.4°C 47% 5.8 mph SW9.3 kmh SW 6.9 mph11.1 kmh 26.64 in902.1 mb - 0.00 in0.0 mm 0.00 in0.0 mm
12:20 PM 72.0°F22.2°C 52.3°F11.3°C 50% 3.5 mph WSW5.6 kmh WSW 3.5 mph5.6 kmh 26.64 in902.1 mb - 0.00 in0.0 mm 0.00 in0.0 mm
12:25 PM 73.0°F22.8°C 52.7°F11.5°C 49% 3.5 mph WSW5.6 kmh WSW 5.8 mph9.3 kmh 26.64 in902.1 mb - 0.00 in0.0 mm 0.00 in0.0 mm
12:30 PM 73.0°F22.8°C 53.3°F11.8°C 50% 3.5 mph W5.6 kmh W 5.8 mph9.3 kmh 26.64 in902.1 mb - 0.00 in0.0 mm 0.00 in0.0 mm
12:35 PM 73.0°F22.8°C 52.7°F11.5°C 49% 3.5 mph SW5.6 kmh SW 6.9 mph11.1 kmh 26.63 in901.8 mb - 0.00 in0.0 mm 0.00 in0.0 mm
12:40 PM 73.0°F22.8°C 52.7°F11.5°C 49% 3.5 mph S5.6 kmh S 6.9 mph11.1 kmh 26.63 in901.8 mb - 0.00 in0.0 mm 0.00 in0.0 mm
12:45 PM 73.0°F22.8°C 52.7°F11.5°C 49% 4.6 mph WSW7.4 kmh WSW 8.1 mph13.0 kmh 26.64 in902.1 mb - 0.00 in0.0 mm 0.00 in0.0 mm
12:50 PM 73.0°F22.8°C 52.1°F11.2°C 48% 3.5 mph NW5.6 kmh NW 5.8 mph9.3 kmh 26.64 in902.1 mb - 0.00 in0.0 mm 0.00 in0.0 mm
12:55 PM 73.0°F22.8°C 51.0°F10.6°C 46% 2.3 mph NNE3.7 kmh NNE 3.5 mph5.6 kmh 26.64 in902.1 mb - 0.00 in0.0 mm 0.00 in0.0 mm
01:00 PM 73.0°F22.8°C 50.4°F10.2°C 45% 1.2 mph W1.9 kmh W 2.3 mph3.7 kmh 26.64 in902.1 mb - 0.00 in0.0 mm 0.00 in0.0 mm
01:10 PM 73.0°F22.8°C 50.4°F10.2°C 45% 3.5 mph WSW5.6 kmh WSW 3.5 mph5.6 kmh 26.65 in902.5 mb - 0.00 in0.0 mm 0.00 in0.0 mm
01:15 PM 72.0°F22.2°C 48.3°F9.1°C 43% 5.8 mph WSW9.3 kmh WSW 8.1 mph13.0 kmh 26.64 in902.1 mb - 0.00 in0.0 mm 0.00 in0.0 mm
01:20 PM 73.0°F22.8°C 49.2°F9.6°C 43% 1.2 mph WSW1.9 kmh WSW 2.3 mph3.7 kmh 26.64 in902.1 mb - 0.00 in0.0 mm 0.00 in0.0 mm
01:25 PM 73.0°F22.8°C 50.4°F10.2°C 45% 3.5 mph W5.6 kmh W 3.5 mph5.6 kmh 26.65 in902.5 mb - 0.00 in0.0 mm 0.00 in0.0 mm
01:30 PM 73.0°F22.8°C 49.2°F9.6°C 43% 5.8 mph S9.3 kmh S 8.1 mph13.0 kmh 26.65 in902.5 mb - 0.00 in0.0 mm 0.00 in0.0 mm
01:35 PM 73.3°F22.9°C 49.4°F9.7°C 43% 4.6 mph S7.4 kmh S 8.1 mph13.0 kmh 26.65 in902.5 mb - 0.00 in0.0 mm 0.00 in0.0 mm
01:40 PM 74.0°F23.3°C 49.4°F9.7°C 42% 2.3 mph SE3.7 kmh SE 3.5 mph5.6 kmh 26.65 in902.5 mb - 0.00 in0.0 mm 0.00 in0.0 mm
01:45 PM 74.0°F23.3°C 51.3°F10.7°C 45% 4.6 mph WSW7.4 kmh WSW 5.8 mph9.3 kmh 26.65 in902.5 mb - 0.00 in0.0 mm 0.00 in0.0 mm
01:50 PM 74.0°F23.3°C 50.7°F10.4°C 44% 2.3 mph W3.7 kmh W 2.3 mph3.7 kmh 26.64 in902.1 mb - 0.00 in0.0 mm 0.00 in0.0 mm
01:55 PM 74.0°F23.3°C 50.1°F10.1°C 43% 3.5 mph SW5.6 kmh SW 5.8 mph9.3 kmh 26.65 in902.5 mb - 0.00 in0.0 mm 0.00 in0.0 mm
02:00 PM 75.0°F23.9°C 51.0°F10.6°C 43% 5.8 mph W9.3 kmh W 6.9 mph11.1 kmh 26.63 in901.8 mb - 0.00 in0.0 mm 0.00 in0.0 mm
02:10 PM 75.0°F23.9°C 51.0°F10.6°C 43% 2.3 mph E3.7 kmh E 3.5 mph5.6 kmh 26.64 in902.1 mb - 0.00 in0.0 mm 0.00 in0.0 mm
02:15 PM 75.0°F23.9°C 52.8°F11.6°C 46% 2.3 mph SW3.7 kmh SW 3.5 mph5.6 kmh 26.64 in902.1 mb - 0.00 in0.0 mm 0.00 in0.0 mm
02:20 PM 74.0°F23.3°C 50.1°F10.1°C 43% 3.5 mph WSW5.6 kmh WSW 5.8 mph9.3 kmh 26.65 in902.5 mb - 0.00 in0.0 mm 0.00 in0.0 mm
02:25 PM 73.0°F22.8°C 51.0°F10.6°C 46% 5.8 mph WSW9.3 kmh WSW 6.9 mph11.1 kmh 26.63 in901.8 mb - 0.00 in0.0 mm 0.00 in0.0 mm
02:30 PM 72.1°F22.3°C 50.2°F10.1°C 46% 4.6 mph SW7.4 kmh SW 6.9 mph11.1 kmh 26.64 in902.1 mb - 0.00 in0.0 mm 0.00 in0.0 mm
02:35 PM 72.0°F22.2°C 50.1°F10.1°C 46% 3.5 mph SSW5.6 kmh SSW 6.9 mph11.1 kmh 26.64 in902.1 mb - 0.00 in0.0 mm 0.00 in0.0 mm
02:40 PM 72.0°F22.2°C 50.1°F10.1°C 46% 2.3 mph WNW3.7 kmh WNW 3.5 mph5.6 kmh 26.63 in901.8 mb - 0.00 in0.0 mm 0.00 in0.0 mm
02:45 PM 75.0°F23.9°C 46.2°F7.9°C 36% Calm Calm -- 26.66 in902.8 mb - 0.00 in0.0 mm 0.00 in0.0 mm
02:50 PM 73.0°F22.8°C 50.4°F10.2°C 45% 1.2 mph NE1.9 kmh NE 1.2 mph1.9 kmh 26.63 in901.8 mb - 0.00 in0.0 mm 0.00 in0.0 mm
02:55 PM 73.0°F22.8°C 52.1°F11.2°C 48% 3.5 mph WSW5.6 kmh WSW 9.2 mph14.8 kmh 26.64 in902.1 mb - 0.00 in0.0 mm 0.00 in0.0 mm
03:00 PM 73.0°F22.8°C 52.7°F11.5°C 49% 3.5 mph SW5.6 kmh SW 9.2 mph14.8 kmh 26.62 in901.5 mb - 0.00 in0.0 mm 0.00 in0.0 mm
03:10 PM 75.0°F23.9°C 51.0°F10.6°C 43% 2.3 mph E3.7 kmh E 3.5 mph5.6 kmh 26.64 in902.1 mb - 0.00 in0.0 mm 0.00 in0.0 mm
03:15 PM 71.0°F21.7°C 51.4°F10.8°C 50% 3.5 mph WSW5.6 kmh WSW 3.5 mph5.6 kmh 26.62 in901.5 mb - 0.00 in0.0 mm 0.00 in0.0 mm
03:20 PM 72.0°F22.2°C 51.2°F10.7°C 48% 5.8 mph SW9.3 kmh SW 6.9 mph11.1 kmh 26.64 in902.1 mb - 0.00 in0.0 mm 0.00 in0.0 mm
03:25 PM 72.0°F22.2°C 50.7°F10.4°C 47% 3.5 mph S5.6 kmh S 5.8 mph9.3 kmh 26.64 in902.1 mb - 0.00 in0.0 mm 0.00 in0.0 mm
03:30 PM 72.7°F22.6°C 51.8°F11.0°C 48% 5.8 mph WSW9.3 kmh WSW 8.1 mph13.0 kmh 26.64 in902.1 mb - 0.00 in0.0 mm 0.00 in0.0 mm
03:35 PM 73.0°F22.8°C 52.1°F11.2°C 48% 5.8 mph W9.3 kmh W 8.1 mph13.0 kmh 26.64 in902.1 mb - 0.00 in0.0 mm 0.00 in0.0 mm
03:40 PM 71.0°F21.7°C 52.0°F11.1°C 51% 3.5 mph SW5.6 kmh SW 5.8 mph9.3 kmh 26.63 in901.8 mb - 0.00 in0.0 mm 0.00 in0.0 mm
03:45 PM 69.0°F20.6°C 51.2°F10.7°C 53% 3.5 mph WSW5.6 kmh WSW 3.5 mph5.6 kmh 26.64 in902.1 mb - 0.00 in0.0 mm 0.00 in0.0 mm
03:50 PM 50.0°F10.0°C 42.7°F5.9°C 76% Calm Calm -- 26.73 in905.2 mb - 0.00 in0.0 mm 0.00 in0.0 mm
03:55 PM 53.8°F12.1°C 44.6°F7.0°C 71% 3.5 mph NW5.6 kmh NW 5.8 mph9.3 kmh 26.62 in901.5 mb - 0.00 in0.0 mm 0.00 in0.0 mm
04:00 PM 69.0°F20.6°C 50.1°F10.1°C 51% 3.5 mph NNW5.6 kmh NNW 5.8 mph9.3 kmh 26.62 in901.5 mb - 0.00 in0.0 mm 0.00 in0.0 mm
04:10 PM 69.0°F20.6°C 51.2°F10.7°C 53% 2.3 mph NE3.7 kmh NE 2.3 mph3.7 kmh 26.62 in901.5 mb - 0.00 in0.0 mm 0.00 in0.0 mm
04:15 PM 68.0°F20.0°C 51.2°F10.7°C 55% Calm Calm -- 26.63 in901.8 mb - 0.00 in0.0 mm 0.00 in0.0 mm
04:20 PM 69.0°F20.6°C 51.2°F10.7°C 53% Calm Calm -- 26.62 in901.5 mb - 0.00 in0.0 mm 0.00 in0.0 mm
04:25 PM 69.0°F20.6°C 52.2°F11.2°C 55% Calm Calm -- 26.62 in901.5 mb - 0.00 in0.0 mm 0.00 in0.0 mm
04:30 PM 69.0°F20.6°C 51.2°F10.7°C 53% Calm Calm -- 26.63 in901.8 mb - 0.00 in0.0 mm 0.00 in0.0 mm
04:35 PM 69.0°F20.6°C 50.1°F10.1°C 51% Calm Calm -- 26.64 in902.1 mb - 0.00 in0.0 mm 0.00 in0.0 mm
04:40 PM 69.0°F20.6°C 50.1°F10.1°C 51% 2.3 mph SSE3.7 kmh SSE 2.3 mph3.7 kmh 26.63 in901.8 mb - 0.00 in0.0 mm 0.00 in0.0 mm
04:45 PM 69.0°F20.6°C 49.6°F9.8°C 50% 1.2 mph ENE1.9 kmh ENE 1.2 mph1.9 kmh 26.63 in901.8 mb - 0.00 in0.0 mm 0.00 in0.0 mm
04:50 PM 69.0°F20.6°C 49.0°F9.4°C 49% 1.2 mph ENE1.9 kmh ENE 1.2 mph1.9 kmh 26.63 in901.8 mb - 0.00 in0.0 mm 0.00 in0.0 mm
04:55 PM 70.0°F21.1°C 51.0°F10.6°C 51% 1.2 mph NE1.9 kmh NE 1.2 mph1.9 kmh 26.63 in901.8 mb - 0.00 in0.0 mm 0.00 in0.0 mm
05:00 PM 70.0°F21.1°C 50.5°F10.3°C 50% Calm Calm 1.2 mph1.9 kmh 26.63 in901.8 mb - 0.00 in0.0 mm 0.00 in0.0 mm
05:10 PM 70.0°F21.1°C 51.0°F10.6°C 51% Calm Calm -- 26.63 in901.8 mb - 0.00 in0.0 mm 0.00 in0.0 mm
05:15 PM 71.0°F21.7°C 52.0°F11.1°C 51% Calm Calm -- 26.63 in901.8 mb - 0.00 in0.0 mm 0.00 in0.0 mm
05:20 PM 70.0°F21.1°C 53.1°F11.7°C 55% Calm Calm -- 26.63 in901.8 mb - 0.00 in0.0 mm 0.00 in0.0 mm
05:25 PM 70.0°F21.1°C 51.6°F10.9°C 52% 1.2 mph SSE1.9 kmh SSE 1.2 mph1.9 kmh 26.62 in901.5 mb - 0.00 in0.0 mm 0.00 in0.0 mm
05:30 PM 69.6°F20.9°C 50.7°F10.4°C 51% 1.2 mph SE1.9 kmh SE 2.3 mph3.7 kmh 26.62 in901.5 mb - 0.00 in0.0 mm 0.00 in0.0 mm
05:35 PM 69.0°F20.6°C 49.6°F9.8°C 50% 1.2 mph NE1.9 kmh NE 2.3 mph3.7 kmh 26.62 in901.5 mb - 0.00 in0.0 mm 0.00 in0.0 mm
05:40 PM 69.0°F20.6°C 50.1°F10.1°C 51% Calm Calm 1.2 mph1.9 kmh 26.63 in901.8 mb - 0.00 in0.0 mm 0.00 in0.0 mm
05:45 PM 69.0°F20.6°C 49.6°F9.8°C 50% 1.2 mph E1.9 kmh E 2.3 mph3.7 kmh 26.63 in901.8 mb - 0.00 in0.0 mm 0.00 in0.0 mm
05:50 PM 69.0°F20.6°C 50.6°F10.3°C 52% Calm Calm 1.2 mph1.9 kmh 26.63 in901.8 mb - 0.00 in0.0 mm 0.00 in0.0 mm
05:55 PM 69.0°F20.6°C 50.6°F10.3°C 52% Calm Calm -- 26.63 in901.8 mb - 0.00 in0.0 mm 0.00 in0.0 mm
06:00 PM 68.7°F20.4°C 50.9°F10.5°C 53% Calm Calm 1.2 mph1.9 kmh 26.63 in901.8 mb - 0.00 in0.0 mm 0.00 in0.0 mm
06:10 PM 68.0°F20.0°C 50.7°F10.4°C 54% Calm Calm -- 26.63 in901.8 mb - 0.00 in0.0 mm 0.00 in0.0 mm
06:15 PM 68.0°F20.0°C 50.2°F10.1°C 53% Calm Calm -- 26.63 in901.8 mb - 0.00 in0.0 mm 0.00 in0.0 mm
06:20 PM 68.0°F20.0°C 52.7°F11.5°C 58% Calm Calm -- 26.63 in901.8 mb - 0.00 in0.0 mm 0.00 in0.0 mm
06:25 PM 68.0°F20.0°C 52.2°F11.2°C 57% Calm Calm -- 26.63 in901.8 mb - 0.00 in0.0 mm 0.00 in0.0 mm
06:30 PM 68.0°F20.0°C 52.2°F11.2°C 57% Calm Calm -- 26.63 in901.8 mb - 0.00 in0.0 mm 0.00 in0.0 mm
06:35 PM 68.0°F20.0°C 54.0°F12.2°C 61% Calm Calm -- 26.64 in902.1 mb - 0.00 in0.0 mm 0.00 in0.0 mm
06:40 PM 68.0°F20.0°C 57.8°F14.3°C 70% Calm Calm -- 26.63 in901.8 mb - 0.00 in0.0 mm 0.00 in0.0 mm
06:45 PM 67.0°F19.4°C 54.4°F12.4°C 64% Calm Calm -- 26.63 in901.8 mb - 0.00 in0.0 mm 0.00 in0.0 mm
06:50 PM 66.4°F19.1°C 53.4°F11.9°C 63% Calm Calm -- 26.64 in902.1 mb - 0.00 in0.0 mm 0.00 in0.0 mm
06:55 PM 66.0°F18.9°C 53.0°F11.7°C 63% Calm Calm -- 26.64 in902.1 mb - 0.00 in0.0 mm 0.00 in0.0 mm
07:00 PM 66.0°F18.9°C 52.6°F11.4°C 62% Calm Calm -- 26.63 in901.8 mb - 0.00 in0.0 mm 0.00 in0.0 mm
07:10 PM 66.0°F18.9°C 52.6°F11.4°C 62% Calm Calm -- 26.64 in902.1 mb - 0.00 in0.0 mm 0.00 in0.0 mm
07:15 PM 65.6°F18.7°C 53.1°F11.7°C 64% Calm Calm -- 26.64 in902.1 mb - 0.00 in0.0 mm 0.00 in0.0 mm
07:20 PM 65.0°F18.3°C 53.4°F11.9°C 66% Calm Calm -- 26.64 in902.1 mb - 0.00 in0.0 mm 0.00 in0.0 mm
07:25 PM 64.0°F17.8°C 54.0°F12.2°C 70% Calm Calm -- 26.64 in902.1 mb - 0.00 in0.0 mm 0.00 in0.0 mm
07:30 PM 64.0°F17.8°C 53.6°F12.0°C 69% Calm Calm -- 26.64 in902.1 mb - 0.00 in0.0 mm 0.00 in0.0 mm
07:35 PM 64.0°F17.8°C 53.6°F12.0°C 69% Calm Calm -- 26.65 in902.5 mb - 0.00 in0.0 mm 0.00 in0.0 mm
07:40 PM 64.0°F17.8°C 53.2°F11.8°C 68% Calm Calm -- 26.64 in902.1 mb - 0.00 in0.0 mm 0.00 in0.0 mm
07:45 PM 64.0°F17.8°C 53.2°F11.8°C 68% Calm Calm -- 26.64 in902.1 mb - 0.00 in0.0 mm 0.00 in0.0 mm
07:50 PM 64.0°F17.8°C 54.0°F12.2°C 70% Calm Calm -- 26.65 in902.5 mb - 0.00 in0.0 mm 0.00 in0.0 mm
07:55 PM 64.0°F17.8°C 54.0°F12.2°C 70% Calm Calm -- 26.65 in902.5 mb - 0.00 in0.0 mm 0.00 in0.0 mm
08:00 PM 63.0°F17.2°C 52.7°F11.5°C 69% Calm Calm -- 26.65 in902.5 mb - 0.00 in0.0 mm 0.00 in0.0 mm
08:10 PM 63.1°F17.3°C 53.6°F12.0°C 71% Calm Calm -- 26.65 in902.5 mb - 0.00 in0.0 mm 0.00 in0.0 mm
08:15 PM 63.0°F17.2°C 53.4°F11.9°C 71% Calm Calm -- 26.65 in902.5 mb - 0.00 in0.0 mm 0.00 in0.0 mm
08:20 PM 63.0°F17.2°C 52.7°F11.5°C 69% Calm Calm -- 26.65 in902.5 mb - 0.00 in0.0 mm 0.00 in0.0 mm
08:25 PM 63.0°F17.2°C 53.1°F11.7°C 70% Calm Calm -- 26.66 in902.8 mb - 0.00 in0.0 mm 0.00 in0.0 mm
08:30 PM 63.0°F17.2°C 53.4°F11.9°C 71% Calm Calm -- 26.67 in903.2 mb - 0.00 in0.0 mm 0.00 in0.0 mm
08:35 PM 62.0°F16.7°C 52.9°F11.6°C 72% Calm Calm -- 26.67 in903.2 mb - 0.00 in0.0 mm 0.00 in0.0 mm
08:40 PM 62.9°F17.2°C 53.0°F11.7°C 70% Calm Calm -- 26.68 in903.5 mb - 0.00 in0.0 mm 0.00 in0.0 mm
08:45 PM 63.0°F17.2°C 53.1°F11.7°C 70% Calm Calm -- 26.68 in903.5 mb - 0.00 in0.0 mm 0.00 in0.0 mm
08:50 PM 63.0°F17.2°C 54.2°F12.3°C 73% Calm Calm -- 26.68 in903.5 mb - 0.00 in0.0 mm 0.00 in0.0 mm
08:55 PM 63.0°F17.2°C 54.9°F12.7°C 75% Calm Calm -- 26.68 in903.5 mb - 0.00 in0.0 mm 0.00 in0.0 mm
09:00 PM 62.0°F16.7°C 53.2°F11.8°C 73% Calm Calm -- 26.69 in903.8 mb - 0.00 in0.0 mm 0.00 in0.0 mm
09:10 PM 62.0°F16.7°C 54.3°F12.4°C 76% Calm Calm -- 26.69 in903.8 mb - 0.00 in0.0 mm 0.00 in0.0 mm
09:15 PM 62.0°F16.7°C 54.3°F12.4°C 76% Calm Calm -- 26.69 in903.8 mb - 0.00 in0.0 mm 0.00 in0.0 mm
09:20 PM 62.0°F16.7°C 54.7°F12.6°C 77% Calm Calm -- 26.68 in903.5 mb - 0.00 in0.0 mm 0.00 in0.0 mm
09:25 PM 62.0°F16.7°C 55.1°F12.8°C 78% Calm Calm 1.2 mph1.9 kmh 26.69 in903.8 mb - 0.00 in0.0 mm 0.00 in0.0 mm
09:30 PM 61.0°F16.1°C 55.8°F13.2°C 83% Calm Calm -- 26.67 in903.2 mb - 0.00 in0.0 mm 0.00 in0.0 mm
09:35 PM 61.0°F16.1°C 56.5°F13.6°C 85% Calm Calm -- 26.66 in902.8 mb - 0.00 in0.0 mm 0.00 in0.0 mm
09:40 PM 60.0°F15.6°C 55.2°F12.9°C 84% Calm Calm -- 26.66 in902.8 mb - 0.00 in0.0 mm 0.00 in0.0 mm
09:45 PM 60.8°F16.0°C 55.0°F12.8°C 81% Calm Calm -- 26.66 in902.8 mb - 0.00 in0.0 mm 0.00 in0.0 mm
09:50 PM 61.0°F16.1°C 55.1°F12.8°C 81% Calm Calm -- 26.66 in902.8 mb - 0.00 in0.0 mm 0.00 in0.0 mm
09:55 PM 61.0°F16.1°C 54.1°F12.3°C 78% Calm Calm -- 26.65 in902.5 mb - 0.00 in0.0 mm 0.00 in0.0 mm
10:00 PM 61.0°F16.1°C 55.1°F12.8°C 81% Calm Calm -- 26.64 in902.1 mb - 0.00 in0.0 mm 0.00 in0.0 mm
10:10 PM 61.0°F16.1°C 54.4°F12.4°C 79% Calm Calm -- 26.64 in902.1 mb - 0.00 in0.0 mm 0.00 in0.0 mm
10:15 PM 61.0°F16.1°C 54.1°F12.3°C 78% Calm Calm -- 26.65 in902.5 mb - 0.00 in0.0 mm 0.00 in0.0 mm
10:20 PM 61.0°F16.1°C 55.5°F13.1°C 82% Calm Calm -- 26.65 in902.5 mb - 0.00 in0.0 mm 0.00 in0.0 mm
10:25 PM 61.0°F16.1°C 56.5°F13.6°C 85% Calm Calm -- 26.65 in902.5 mb - 0.00 in0.0 mm 0.00 in0.0 mm
10:30 PM 59.0°F15.0°C 54.5°F12.5°C 85% Calm Calm -- 26.65 in902.5 mb - 0.00 in0.0 mm 0.00 in0.0 mm
10:35 PM 59.0°F15.0°C 55.1°F12.8°C 87% Calm Calm -- 26.65 in902.5 mb - 0.00 in0.0 mm 0.00 in0.0 mm
10:40 PM 59.0°F15.0°C 55.1°F12.8°C 87% Calm Calm -- 26.66 in902.8 mb - 0.00 in0.0 mm 0.00 in0.0 mm
10:45 PM 59.0°F15.0°C 54.2°F12.3°C 84% Calm Calm -- 26.65 in902.5 mb - 0.00 in0.0 mm 0.00 in0.0 mm
10:50 PM 60.0°F15.6°C 55.8°F13.2°C 86% Calm Calm -- 26.65 in902.5 mb - 0.00 in0.0 mm 0.00 in0.0 mm
10:55 PM 60.0°F15.6°C 55.8°F13.2°C 86% Calm Calm -- 26.65 in902.5 mb - 0.00 in0.0 mm 0.00 in0.0 mm
11:00 PM 60.0°F15.6°C 56.1°F13.4°C 87% Calm Calm -- 26.65 in902.5 mb - 0.00 in0.0 mm 0.00 in0.0 mm
11:10 PM 59.0°F15.0°C 56.1°F13.4°C 90% Calm Calm -- 26.67 in903.2 mb - 0.01 in0.3 mm 0.01 in0.3 mm
11:15 PM 58.0°F14.4°C 56.0°F13.3°C 93% Calm Calm -- 26.68 in903.5 mb - 0.02 in0.5 mm 0.02 in0.5 mm
11:20 PM 58.0°F14.4°C 56.6°F13.7°C 95% Calm Calm -- 26.67 in903.2 mb - 0.03 in0.8 mm 0.03 in0.8 mm
11:25 PM 57.0°F13.9°C 55.9°F13.3°C 96% Calm Calm -- 26.66 in902.8 mb - 0.04 in1.0 mm 0.04 in1.0 mm
11:30 PM 57.0°F13.9°C 55.9°F13.3°C 96% Calm Calm -- 26.66 in902.8 mb - 0.04 in1.0 mm 0.04 in1.0 mm
11:35 PM 57.0°F13.9°C 55.9°F13.3°C 96% Calm Calm -- 26.66 in902.8 mb - 0.04 in1.0 mm 0.04 in1.0 mm
11:40 PM 57.0°F13.9°C 55.9°F13.3°C 96% Calm Calm -- 26.67 in903.2 mb - 0.04 in1.0 mm 0.04 in1.0 mm
11:45 PM 57.0°F13.9°C 55.9°F13.3°C 96% Calm Calm -- 26.67 in903.2 mb - 0.04 in1.0 mm 0.04 in1.0 mm
11:50 PM 57.0°F13.9°C 55.9°F13.3°C 96% Calm Calm -- 26.66 in902.8 mb - 0.04 in1.0 mm 0.04 in1.0 mm
11:55 PM 57.0°F13.9°C 55.9°F13.3°C 96% Calm Calm -- 26.66 in902.8 mb - 0.04 in1.0 mm 0.04 in1.0 mm